Time;durP1;ratioP1;P1;durP2;ratioP2;P2;SDS_P1;SDS_P2;PMS_P1;PMS_P2;Temp;Humidity;BMP_temperature;BMP_pressure;BME280_temperature;BME280_humidity;BME280_pressure;Samples;Min_cycle;Max_cycle;Signal;HPM_P1;HPM_P2
2023/08/26 00:01:45;;;;;;;5.95;2.20;;;;;;;20.33;73.70;100439.72;15688631;28;20037;-46
2023/08/26 00:09:19;;;;;;;3.22;2.53;;;;;;;20.58;72.21;100437.94;15653229;28;20517;-46
2023/08/26 00:16:54;;;;;;;5.80;2.80;;;;;;;20.60;71.59;100441.19;15620647;28;20429;-47
2023/08/26 00:24:28;;;;;;;4.60;2.88;;;;;;;20.42;71.38;100430.91;15625674;28;20128;-46
2023/08/26 00:32:03;;;;;;;6.88;2.92;;;;;;;20.31;71.81;100420.09;15625190;28;20132;-48
2023/08/26 00:39:36;;;;;;;4.55;2.47;;;;;;;20.59;70.35;100417.75;15590933;28;20049;-46
2023/08/26 00:47:11;;;;;;;5.65;2.45;;;;;;;20.38;71.46;100414.34;15605613;28;20056;-47
2023/08/26 00:54:45;;;;;;;4.32;2.60;;;;;;;20.65;70.63;100408.41;15605243;28;20379;-48
2023/08/26 01:02:19;;;;;;;6.22;2.75;;;;;;;20.59;70.99;100407.66;15623272;28;20124;-46
2023/08/26 01:09:53;;;;;;;4.30;2.60;;;;;;;20.51;69.76;100372.81;15605445;28;20409;-46
2023/08/26 01:17:30;;;;;;;3.72;2.47;;;;;;;20.73;69.74;100410.53;15657252;28;20116;-49
2023/08/26 01:25:07;;;;;;;4.65;2.85;;;;;;;20.71;70.24;100411.94;15650070;28;20107;-47
2023/08/26 01:32:47;;;;;;;4.53;2.60;;;;;;;20.33;71.46;100415.19;15683458;28;20124;-46
2023/08/26 01:40:33;;;;;;;6.63;3.00;;;;;;;20.19;71.94;100408.75;15666236;28;20076;-46
2023/08/26 01:48:07;;;;;;;8.27;2.70;;;;;;;20.12;71.15;100391.88;15664321;28;20381;-45
2023/08/26 01:55:41;;;;;;;7.97;3.08;;;;;;;20.46;70.16;100388.38;15663804;28;20063;-45
2023/08/26 02:03:14;;;;;;;7.80;3.00;;;;;;;20.51;69.81;100402.00;15663229;28;20051;-50
2023/08/26 02:10:55;;;;;;;5.75;2.70;;;;;;;20.45;70.05;100386.75;15678823;28;20140;-46
2023/08/26 02:18:29;;;;;;;4.28;3.05;;;;;;;20.50;70.46;100375.81;15617996;28;20045;-47
2023/08/26 02:26:04;;;;;;;6.10;3.65;;;;;;;20.26;70.92;100362.91;15583681;28;20041;-46
2023/08/26 02:33:37;;;;;;;5.82;3.28;;;;;;;20.06;71.74;100354.88;15633424;28;20046;-45
2023/08/26 02:41:15;;;;;;;8.27;3.40;;;;;;;20.16;71.40;100349.34;15600441;28;20047;-48
2023/08/26 02:48:48;;;;;;;6.07;3.30;;;;;;;20.31;70.96;100338.31;15599010;28;20454;-47
2023/08/26 02:56:22;;;;;;;10.98;3.60;;;;;;;20.06;71.54;100333.88;15598630;28;20045;-47
2023/08/26 03:03:56;;;;;;;10.05;3.58;;;;;;;20.20;71.10;100339.50;15614360;28;20057;-46
2023/08/26 03:11:32;;;;;;;6.28;3.58;;;;;;;20.34;70.65;100350.59;15598934;28;20124;-46
2023/08/26 03:19:06;;;;;;;6.32;3.65;;;;;;;20.15;71.66;100372.25;15598560;28;20596;-46
2023/08/26 03:26:41;;;;;;;6.78;3.40;;;;;;;20.05;71.35;100380.47;15597723;28;20059;-50
2023/08/26 03:34:16;;;;;;;7.53;3.40;;;;;;;19.64;73.27;100363.56;15598036;28;20559;-46
2023/08/26 03:41:51;;;;;;;5.20;3.40;;;;;;;19.81;72.99;100364.81;15597935;28;20045;-47
2023/08/26 03:49:26;;;;;;;8.77;3.83;;;;;;;19.14;76.16;100368.88;15597727;28;20120;-45
2023/08/26 03:57:01;;;;;;;8.35;4.25;;;;;;;19.46;75.26;100381.28;15580463;28;20046;-48
2023/08/26 04:04:35;;;;;;;8.52;4.28;;;;;;;19.83;73.46;100357.19;15597021;28;20045;-45
2023/08/26 04:12:09;;;;;;;6.63;4.20;;;;;;;19.84;73.99;100326.13;15606045;28;20149;-44
2023/08/26 04:19:42;;;;;;;9.48;4.00;;;;;;;19.86;74.01;100339.44;15640722;28;20472;-45
2023/08/26 04:27:17;;;;;;;8.27;4.22;;;;;;;20.14;72.87;100335.19;15657480;28;20041;-48
2023/08/26 04:34:53;;;;;;;7.95;5.03;;;;;;;19.17;77.17;100343.03;15666891;28;20049;-44
2023/08/26 04:42:27;;;;;;;9.10;5.07;;;;;;;19.56;76.21;100370.34;15668594;28;20037;-45
2023/08/26 04:50:00;;;;;;;13.15;4.70;;;;;;;19.41;76.61;100373.97;15651464;28;20049;-46
2023/08/26 04:57:35;;;;;;;10.18;5.50;;;;;;;19.58;75.19;100387.22;15667777;28;20079;-46
2023/08/26 05:05:09;;;;;;;9.63;5.70;;;;;;;19.97;75.26;100386.53;15666805;28;20048;-45
2023/08/26 05:12:44;;;;;;;8.43;6.20;;;;;;;20.18;73.86;100388.00;15666384;28;20091;-45
2023/08/26 05:20:17;;;;;;;11.30;6.25;;;;;;;20.09;74.71;100398.69;15665889;28;20155;-48
2023/08/26 05:27:52;;;;;;;14.25;6.80;;;;;;;19.79;74.37;100372.44;15698367;28;20037;-45
2023/08/26 05:35:26;;;;;;;11.50;6.43;;;;;;;20.32;73.77;100419.00;15664675;28;20073;-46
2023/08/26 05:43:01;;;;;;;11.50;7.25;;;;;;;20.06;74.84;100431.97;15646650;28;20037;-47
2023/08/26 05:50:35;;;;;;;12.60;7.07;;;;;;;20.18;75.50;100437.06;15664457;28;20552;-44
2023/08/26 05:58:09;;;;;;;10.85;7.35;;;;;;;20.26;75.98;100452.84;15664459;28;20049;-49
2023/08/26 06:05:43;;;;;;;10.70;7.22;;;;;;;20.40;76.07;100439.41;15664392;28;20110;-45
2023/08/26 06:13:17;;;;;;;14.15;7.60;;;;;;;20.92;75.23;100445.31;15663429;28;20068;-48
2023/08/26 06:20:52;;;;;;;12.88;7.75;;;;;;;20.59;75.40;100447.75;15662937;28;20562;-46
2023/08/26 06:28:26;;;;;;;12.70;7.72;;;;;;;20.99;74.44;100459.44;15679727;28;20049;-46
2023/08/26 06:36:02;;;;;;;12.45;8.10;;;;;;;20.91;75.72;100488.16;15661865;28;20055;-46
2023/08/26 06:43:37;;;;;;;13.68;8.55;;;;;;;20.48;77.59;100487.91;15661625;28;20098;-47
2023/08/26 06:51:10;;;;;;;12.57;8.68;;;;;;;20.81;76.84;100505.41;15644364;28;20049;-44
2023/08/26 06:58:46;;;;;;;11.98;8.80;;;;;;;20.60;77.63;100501.19;15677956;28;20033;-45
2023/08/26 07:06:19;;;;;;;12.95;9.25;;;;;;;20.85;77.69;100500.22;15678475;28;20151;-45
2023/08/26 07:13:53;;;;;;;12.45;8.38;;;;;;;21.15;76.15;100488.22;15678328;28;20417;-49
2023/08/26 07:21:27;;;;;;;13.30;9.23;;;;;;;20.77;78.08;100509.81;15660040;28;20071;-47
2023/08/26 07:29:01;;;;;;;11.32;9.77;;;;;;;21.06;77.23;100519.94;15678167;28;20052;-45
2023/08/26 07:36:35;;;;;;;16.25;9.45;;;;;;;21.28;76.47;100520.31;15676984;28;20080;-48
2023/08/26 07:44:09;;;;;;;11.68;9.68;;;;;;;21.17;77.63;100534.31;15659386;28;20413;-47
2023/08/26 07:51:42;;;;;;;14.30;10.32;;;;;;;21.35;76.78;100534.44;15676503;28;20444;-43
2023/08/26 07:59:17;;;;;;;15.70;11.05;;;;;;;21.02;78.09;100527.06;15676056;28;20069;-48
2023/08/26 08:06:51;;;;;;;14.10;9.70;;;;;;;20.90;78.89;100538.34;15681142;28;20098;-44
2023/08/26 08:14:26;;;;;;;13.43;9.40;;;;;;;21.38;78.57;100535.81;15659817;28;20103;-45
2023/08/26 08:21:59;;;;;;;12.13;8.88;;;;;;;21.53;78.14;100537.56;15608425;28;20069;-44
2023/08/26 08:29:33;;;;;;;11.02;8.20;;;;;;;21.09;78.78;100527.56;15624852;28;20095;-44
2023/08/26 08:37:06;;;;;;;15.15;9.75;;;;;;;21.62;77.39;100546.78;15606595;28;20099;-48
2023/08/26 08:44:44;;;;;;;10.27;7.47;;;;;;;20.93;79.47;100534.22;15624223;28;20108;-46
2023/08/26 08:52:18;;;;;;;8.95;6.88;;;;;;;21.30;77.34;100506.34;15615289;28;20132;-54
2023/08/26 08:59:58;;;;;;;7.85;7.10;;;;;;;21.80;77.14;100528.81;15629396;28;20033;-49
2023/08/26 09:07:34;;;;;;;8.85;6.63;;;;;;;21.71;77.42;100527.84;15637446;28;20101;-46
2023/08/26 09:15:10;;;;;;;8.45;6.10;;;;;;;22.51;75.45;100536.16;15678453;23;20041;-52
2023/08/26 09:22:42;;;;;;;9.77;5.47;;;;;;;22.34;75.30;100533.94;15684373;28;20076;-50
2023/08/26 09:30:21;;;;;;;9.95;5.65;;;;;;;22.85;75.25;100541.44;15667896;28;20037;-51
2023/08/26 09:37:59;;;;;;;9.48;5.68;;;;;;;23.34;73.57;100531.88;15666301;28;20063;-51
2023/08/26 09:45:36;;;;;;;10.18;7.55;;;;;;;23.66;68.86;100542.03;15666318;28;20394;-53
2023/08/26 09:53:10;;;;;;;11.45;8.20;;;;;;;23.30;68.01;100541.00;15664965;28;20111;-51
2023/08/26 10:00:48;;;;;;;10.48;8.57;;;;;;;23.24;70.49;100543.03;15665060;28;20114;-51
2023/08/26 10:08:28;;;;;;;16.88;8.88;;;;;;;24.22;64.12;100544.78;15664095;28;20485;-54
2023/08/26 10:16:07;;;;;;;13.05;9.07;;;;;;;23.25;65.25;100541.09;15664535;28;20041;-51
2023/08/26 10:23:40;;;;;;;11.35;9.23;;;;;;;23.62;65.97;100534.69;15682960;28;20490;-51
2023/08/26 10:31:16;;;;;;;11.48;7.55;;;;;;;24.75;59.88;100530.44;15665352;28;20041;-55
2023/08/26 10:38:55;;;;;;;11.90;7.53;;;;;;;26.09;55.61;100530.28;15647271;28;20128;-54
2023/08/26 10:46:34;;;;;;;9.35;6.30;;;;;;;24.31;57.40;100519.06;15661150;28;20053;-54
2023/08/26 10:54:08;;;;;;;7.70;5.80;;;;;;;23.89;58.11;100523.75;15644839;28;20044;-52
2023/08/26 11:01:44;;;;;;;10.05;6.28;;;;;;;23.87;60.16;100522.44;15678838;28;20051;-53
2023/08/26 11:09:19;;;;;;;9.18;6.30;;;;;;;23.60;60.13;100513.06;15660927;28;20059;-52
2023/08/26 11:16:55;;;;;;;10.63;5.70;;;;;;;25.60;54.80;100487.38;15660580;28;20079;-53
2023/08/26 11:24:31;;;;;;;6.60;3.90;;;;;;;25.81;50.41;100501.41;15677576;28;20102;-52
2023/08/26 11:32:07;;;;;;;6.80;3.40;;;;;;;27.17;48.83;100498.31;15659464;28;20099;-51
2023/08/26 11:39:40;;;;;;;7.25;2.92;;;;;;;27.16;45.00;100499.44;15680418;28;20071;-53
2023/08/26 11:47:16;;;;;;;4.93;2.67;;;;;;;27.33;47.46;100495.03;15689816;28;20052;-50
2023/08/26 11:54:52;;;;;;;6.75;3.15;;;;;;;27.87;42.66;100509.91;15671542;28;20497;-53
2023/08/26 12:02:27;;;;;;;3.80;2.25;;;;;;;26.64;46.62;100520.69;15688729;28;20051;-54
2023/08/26 12:10:09;;;;;;;4.40;3.08;;;;;;;25.83;48.59;100512.88;15688853;28;20041;-51
2023/08/26 12:17:46;;;;;;;5.70;3.30;;;;;;;24.87;50.92;100514.25;15669946;28;20069;-51
2023/08/26 12:25:20;;;;;;;5.05;3.20;;;;;;;25.21;50.63;100513.69;15689388;28;20534;-51
2023/08/26 12:32:54;;;;;;;6.85;3.22;;;;;;;27.22;46.79;100519.38;15670217;28;20449;-56
2023/08/26 12:40:28;;;;;;;5.07;3.40;;;;;;;26.49;48.12;100530.25;15669934;28;20041;-49
2023/08/26 12:48:05;;;;;;;6.88;2.85;;;;;;;26.79;43.65;100528.47;15687342;28;20051;-47
2023/08/26 12:55:38;;;;;;;7.50;3.40;;;;;;;24.91;50.71;100545.47;15667862;28;20135;-50
2023/08/26 13:03:12;;;;;;;8.90;4.25;;;;;;;24.41;53.12;100565.50;15685978;28;20045;-50
2023/08/26 13:10:45;;;;;;;7.07;4.03;;;;;;;25.22;50.90;100564.75;15685492;28;20120;-51
2023/08/26 13:18:21;;;;;;;8.43;4.05;;;;;;;25.95;48.37;100562.59;15666095;28;20067;-51
2023/08/26 13:25:54;;;;;;;6.47;3.47;;;;;;;26.91;47.31;100564.44;15666809;28;20512;-51
2023/08/26 13:33:28;;;;;;;8.07;3.47;;;;;;;25.49;48.66;100579.50;15683863;28;20037;-52
2023/08/26 13:41:01;;;;;;;4.07;2.67;;;;;;;25.77;46.20;100580.16;15666358;28;20040;-50
2023/08/26 13:48:36;;;;;;;4.70;2.90;;;;;;;25.38;46.21;100582.50;15683514;28;20041;-51
2023/08/26 13:56:11;;;;;;;6.65;2.58;;;;;;;24.50;45.06;100571.09;15683995;28;20624;-51
2023/08/26 14:03:46;;;;;;;4.28;2.50;;;;;;;23.90;45.54;100606.81;15665395;28;20098;-53
2023/08/26 14:11:19;;;;;;;4.28;2.60;;;;;;;24.03;46.44;100627.16;15661136;28;20445;-52
2023/08/26 14:18:53;;;;;;;5.25;2.60;;;;;;;23.83;48.13;100642.06;15617560;28;20046;-52
2023/08/26 14:26:26;;;;;;;3.47;2.20;;;;;;;23.70;47.14;100646.38;15617503;28;20120;-51
2023/08/26 14:34:03;;;;;;;3.15;1.90;;;;;;;23.73;46.21;100637.53;15617345;28;20041;-52
2023/08/26 14:41:36;;;;;;;4.18;1.70;;;;;;;23.55;45.18;100652.91;15616845;28;20076;-54
2023/08/26 14:49:12;;;;;;;3.22;1.30;;;;;;;22.78;43.70;100669.59;15616363;28;20497;-51
2023/08/26 14:56:45;;;;;;;4.53;1.33;;;;;;;22.41;44.08;100662.94;15617689;28;20046;-52
2023/08/26 15:04:20;;;;;;;2.83;1.52;;;;;;;22.91;43.24;100670.84;15617557;28;20049;-53
2023/08/26 15:11:53;;;;;;;3.08;1.30;;;;;;;22.84;44.11;100664.88;15622214;28;20120;-52
2023/08/26 15:19:28;;;;;;;6.18;2.88;;;;;;;22.25;42.43;100669.69;15667757;22;20412;-46
2023/08/26 15:27:03;;;;;;;2.55;1.20;;;;;;;22.47;42.67;100673.81;15655114;28;20628;-48
2023/08/26 15:34:38;;;;;;;3.60;1.40;;;;;;;22.37;43.19;100685.69;15653419;28;20095;-49
2023/08/26 15:42:14;;;;;;;2.30;1.10;;;;;;;22.60;42.57;100676.66;15670504;28;20124;-52
2023/08/26 15:49:49;;;;;;;3.58;1.35;;;;;;;22.14;42.43;100668.97;15653061;28;20068;-48
2023/08/26 15:57:23;;;;;;;5.15;1.40;;;;;;;22.44;43.89;100688.91;15670720;28;20048;-51
2023/08/26 16:05:01;;;;;;;2.10;1.10;;;;;;;22.53;43.72;100700.00;15654542;28;20131;-45
2023/08/26 16:12:36;;;;;;;4.13;1.40;;;;;;;22.55;43.74;100684.91;15653861;28;20079;-46
2023/08/26 16:20:11;;;;;;;3.92;2.65;;;;;;;22.25;45.22;100685.28;15670695;28;20052;-52
2023/08/26 16:27:44;;;;;;;5.47;1.60;;;;;;;22.23;45.02;100673.81;15674287;28;20130;-45
2023/08/26 16:35:18;;;;;;;4.82;1.58;;;;;;;22.45;45.49;100676.84;15680948;28;20052;-45
2023/08/26 16:42:51;;;;;;;2.78;1.20;;;;;;;22.09;46.14;100682.66;15680394;28;20052;-51
2023/08/26 16:50:27;;;;;;;2.65;1.48;;;;;;;22.46;45.55;100681.19;15663272;28;20045;-47
2023/08/26 16:58:05;;;;;;;5.70;1.30;;;;;;;22.42;46.46;100671.94;15662215;28;20138;-53
2023/08/26 17:05:40;;;;;;;3.25;1.50;;;;;;;22.23;45.26;100665.59;15680664;28;20064;-50
2023/08/26 17:13:15;;;;;;;3.45;1.42;;;;;;;22.26;46.42;100706.03;15662220;28;20041;-52
2023/08/26 17:20:51;;;;;;;3.25;1.50;;;;;;;21.95;47.79;100709.03;15660947;28;20095;-48
2023/08/26 17:28:29;;;;;;;5.05;1.65;;;;;;;22.07;47.66;100709.47;15678389;28;20053;-45
2023/08/26 17:36:04;;;;;;;3.25;1.30;;;;;;;22.08;47.56;100737.63;15677469;28;20053;-46
2023/08/26 17:43:40;;;;;;;3.78;1.40;;;;;;;22.03;47.61;100713.88;15658519;28;20045;-45
2023/08/26 17:51:24;;;;;;;4.63;1.58;;;;;;;22.10;47.50;100746.34;15659759;28;20053;-44
2023/08/26 17:58:58;;;;;;;4.72;1.77;;;;;;;21.85;49.18;100742.72;15676770;28;20603;-48
2023/08/26 18:06:35;;;;;;;4.65;2.03;;;;;;;21.71;50.75;100752.66;15657805;28;20049;-45
2023/08/26 18:14:08;;;;;;;7.55;3.10;;;;;;;21.66;49.56;100741.78;15674986;28;20049;-54
2023/08/26 18:21:42;;;;;;;4.32;2.30;;;;;;;21.42;50.67;100736.22;15674874;28;20090;-48
2023/08/26 18:29:15;;;;;;;8.23;3.65;;;;;;;21.29;50.29;100734.06;15652636;28;20095;-46
2023/08/26 18:36:50;;;;;;;6.13;2.72;;;;;;;21.17;50.15;100758.97;15655764;28;20048;-53
2023/08/26 18:44:23;;;;;;;5.20;2.55;;;;;;;20.91;50.75;100754.72;15638633;28;20076;-47
2023/08/26 18:51:57;;;;;;;5.22;2.67;;;;;;;20.73;51.74;100751.50;15672053;28;20044;-53
2023/08/26 18:59:30;;;;;;;5.38;2.90;;;;;;;20.62;52.43;100736.28;15654889;28;20047;-47
2023/08/26 19:07:06;;;;;;;8.70;5.70;;;;;;;20.29;54.78;100716.69;15654522;28;20430;-48
2023/08/26 19:14:39;;;;;;;13.48;7.88;;;;;;;20.04;56.32;100731.16;15671210;28;20401;-49
2023/08/26 19:22:13;;;;;;;12.43;6.88;;;;;;;19.99;55.97;100733.06;15671380;28;20052;-52
2023/08/26 19:29:47;;;;;;;11.15;7.38;;;;;;;19.66;56.04;100723.53;15671479;28;20041;-49
2023/08/26 19:37:21;;;;;;;9.90;5.65;;;;;;;19.69;55.84;100731.97;15672021;28;20115;-47
2023/08/26 19:44:54;;;;;;;14.05;7.45;;;;;;;19.57;57.27;100740.34;15650173;28;20048;-49
2023/08/26 19:52:30;;;;;;;11.82;6.97;;;;;;;19.23;59.04;100726.41;15648327;28;20124;-48
2023/08/26 20:00:07;;;;;;;12.27;5.63;;;;;;;19.45;58.15;100749.88;15630629;28;20448;-52
2023/08/26 20:07:46;;;;;;;8.93;5.40;;;;;;;19.53;58.18;100760.22;15675686;28;20505;-50
2023/08/26 20:15:19;;;;;;;6.72;4.35;;;;;;;19.48;58.05;100774.63;15654183;28;20045;-49
2023/08/26 20:22:54;;;;;;;5.97;3.70;;;;;;;19.06;58.08;100781.03;15682309;28;20498;-47
2023/08/26 20:30:27;;;;;;;4.60;2.47;;;;;;;19.09;55.99;100782.41;15682208;28;20049;-44
2023/08/26 20:38:02;;;;;;;7.13;5.00;;;;;;;19.61;57.10;100787.78;15648035;28;20169;-55
2023/08/26 20:45:35;;;;;;;9.38;3.20;;;;;;;19.41;58.01;100781.44;15681912;28;20041;-56
2023/08/26 20:53:09;;;;;;;6.88;3.70;;;;;;;19.28;58.75;100783.56;15661883;28;20053;-48
2023/08/26 21:00:42;;;;;;;7.93;3.33;;;;;;;18.98;59.27;100787.00;15661869;28;20044;-49
2023/08/26 21:08:17;;;;;;;6.97;3.15;;;;;;;18.80;60.35;100784.72;15678014;28;20041;-50
2023/08/26 21:15:50;;;;;;;4.05;3.03;;;;;;;18.53;61.01;100784.81;15678895;28;20079;-48
2023/08/26 21:23:25;;;;;;;10.18;3.90;;;;;;;18.18;62.47;100786.16;15610174;28;20080;-48
2023/08/26 21:31:00;;;;;;;5.05;3.70;;;;;;;18.07;62.89;100781.75;15582631;28;20045;-49
2023/08/26 21:38:34;;;;;;;8.15;4.57;;;;;;;18.00;63.90;100805.56;15598498;28;20581;-50
2023/08/26 21:46:11;;;;;;;7.95;5.18;;;;;;;18.09;63.41;100798.59;15640596;28;20057;-48
2023/08/26 21:53:46;;;;;;;8.35;5.55;;;;;;;17.98;63.55;100796.88;15660615;28;20040;-52
2023/08/26 22:01:22;;;;;;;9.05;5.50;;;;;;;17.98;64.12;100810.44;15676607;28;20044;-48
2023/08/26 22:08:56;;;;;;;10.25;5.47;;;;;;;17.80;64.36;100826.03;15658611;28;20053;-53
2023/08/26 22:16:30;;;;;;;11.77;5.88;;;;;;;18.14;63.37;100824.97;15674668;28;20072;-51
2023/08/26 22:24:05;;;;;;;9.23;5.45;;;;;;;18.21;63.50;100823.69;15655748;28;20048;-50
2023/08/26 22:31:38;;;;;;;12.15;5.55;;;;;;;18.32;64.53;100827.31;15674114;28;20081;-49
2023/08/26 22:39:12;;;;;;;;;;;;;;;18.29;64.40;100831.38;15656733;28;20072;-48
2023/08/26 22:46:48;;;;;;;8.15;5.13;;;;;;;18.36;63.44;100818.38;15674199;28;19932;-51
2023/08/26 22:54:23;;;;;;;7.70;4.80;;;;;;;18.54;63.26;100816.34;15656698;28;20048;-47
2023/08/26 23:01:57;;;;;;;6.93;5.00;;;;;;;18.46;64.07;100805.94;15673550;28;20040;-51
2023/08/26 23:09:34;;;;;;;7.65;5.00;;;;;;;18.28;63.79;100812.63;15654861;28;20108;-53
2023/08/26 23:17:08;;;;;;;9.02;6.40;;;;;;;18.09;64.12;100799.44;15654795;28;20056;-48
2023/08/26 23:24:42;;;;;;;9.43;5.82;;;;;;;17.73;65.13;100801.00;15671712;28;20055;-48
2023/08/26 23:32:16;;;;;;;13.27;7.82;;;;;;;17.52;65.65;100753.78;15671927;28;20481;-48
2023/08/26 23:39:50;;;;;;;8.02;5.80;;;;;;;17.57;66.08;100785.56;15682438;28;20355;-50
2023/08/26 23:47:23;;;;;;;9.07;5.85;;;;;;;17.41;66.92;100781.06;15666275;28;20502;-48
2023/08/26 23:54:57;;;;;;;13.15;4.82;;;;;;;17.43;66.09;100763.44;15683803;28;20099;-50
